Time;durP1;ratioP1;P1;durP2;ratioP2;P2;SDS_P1;SDS_P2;PMS_P1;PMS_P2;Temp;Humidity;BMP_temperature;BMP_pressure;BME280_temperature;BME280_humidity;BME280_pressure;Samples;Min_cycle;Max_cycle;Signal;HPM_P1;HPM_P2
2024/01/08 00:01:47;;;;;;;4.77;3.40;;;0.80;99.90;;;;;;5034321;28;20173;-75
2024/01/08 00:04:13;;;;;;;4.43;3.67;;;0.90;99.90;;;;;;5034155;28;20182;-76
2024/01/08 00:06:39;;;;;;;5.07;3.90;;;0.90;99.90;;;;;;5015115;28;20973;-78
2024/01/08 00:09:04;;;;;;;5.53;3.57;;;0.80;99.90;;;;;;5034055;28;20818;-72
2024/01/08 00:11:30;;;;;;;4.37;3.73;;;0.70;99.90;;;;;;5032618;28;20529;-74
2024/01/08 00:13:56;;;;;;;6.13;3.90;;;0.60;99.90;;;;;;5016923;28;20205;-76
2024/01/08 00:16:21;;;;;;;5.57;3.90;;;0.60;99.90;;;;;;5015268;28;20225;-75
2024/01/08 00:18:47;;;;;;;4.90;3.80;;;0.60;99.90;;;;;;5034245;28;20183;-73
2024/01/08 00:21:13;;;;;;;4.70;4.10;;;0.60;99.90;;;;;;5015912;28;20251;-73
2024/01/08 00:23:39;;;;;;;4.73;3.90;;;0.60;99.90;;;;;;5033532;28;20445;-72
2024/01/08 00:26:05;;;;;;;5.30;3.90;;;0.70;99.90;;;;;;5033711;28;20182;-75
2024/01/08 00:28:31;;;;;;;4.43;3.53;;;0.70;99.90;;;;;;5032427;28;20197;-75
2024/01/08 00:30:56;;;;;;;4.93;3.63;;;0.70;99.90;;;;;;5034343;28;20424;-75
2024/01/08 00:33:22;;;;;;;7.17;4.40;;;0.70;99.90;;;;;;5015843;28;20177;-74
2024/01/08 00:35:48;;;;;;;4.23;3.83;;;0.60;99.90;;;;;;5033154;28;20241;-77
2024/01/08 00:38:13;;;;;;;5.20;4.20;;;0.60;99.90;;;;;;5033412;28;20189;-76
2024/01/08 00:40:39;;;;;;;5.90;3.80;;;0.50;99.90;;;;;;5015455;28;20197;-74
2024/01/08 00:43:05;;;;;;;4.20;3.80;;;0.50;99.90;;;;;;5033862;28;20185;-75
2024/01/08 00:45:31;;;;;;;5.63;4.07;;;0.50;99.90;;;;;;5031857;28;20182;-73
2024/01/08 00:47:57;;;;;;;4.60;3.83;;;0.50;99.90;;;;;;5033935;28;20240;-76
2024/01/08 00:50:23;;;;;;;4.30;3.73;;;0.50;99.90;;;;;;5033058;28;20892;-76
2024/01/08 00:52:48;;;;;;;7.67;4.27;;;0.60;99.90;;;;;;5015175;28;20256;-77
2024/01/08 00:55:14;;;;;;;4.13;3.73;;;0.60;99.90;;;;;;5032874;28;20205;-75
2024/01/08 00:57:40;;;;;;;4.93;3.87;;;0.60;99.90;;;;;;5033273;28;20565;-73
2024/01/08 01:00:07;;;;;;;5.27;4.10;;;0.50;99.90;;;;;;5000085;28;20205;-75
2024/01/08 01:02:33;;;;;;;6.83;4.80;;;0.50;99.90;;;;;;5042223;28;20629;-72
2024/01/08 01:04:58;;;;;;;7.70;4.47;;;0.50;99.90;;;;;;5027153;28;20433;-72
2024/01/08 01:07:26;;;;;;;5.23;4.17;;;0.60;99.90;;;;;;5043982;28;20181;-72
2024/01/08 01:09:52;;;;;;;5.20;4.70;;;0.60;99.90;;;;;;5033727;28;20557;-74
2024/01/08 01:12:17;;;;;;;5.93;5.23;;;0.60;99.90;;;;;;5033114;28;20429;-74
2024/01/08 01:14:43;;;;;;;6.57;4.83;;;0.50;99.90;;;;;;5033047;28;20306;-77
2024/01/08 01:17:09;;;;;;;7.87;5.07;;;0.50;99.90;;;;;;5032083;28;20715;-76
2024/01/08 01:19:34;;;;;;;5.50;4.50;;;0.50;99.90;;;;;;5033465;28;20186;-74
2024/01/08 01:22:00;;;;;;;6.40;5.13;;;0.50;99.90;;;;;;5015075;28;20312;-77
2024/01/08 01:24:25;;;;;;;5.93;4.50;;;0.50;99.90;;;;;;4999756;28;20178;-74
2024/01/08 01:26:51;;;;;;;7.87;5.50;;;0.40;99.90;;;;;;5032020;28;20553;-75
2024/01/08 01:29:17;;;;;;;6.37;5.00;;;0.40;99.90;;;;;;5032935;28;20273;-77
2024/01/08 01:31:43;;;;;;;7.40;5.10;;;0.30;99.90;;;;;;5014945;28;20689;-76
2024/01/08 01:34:12;;;;;;;6.70;5.03;;;0.30;99.90;;;;;;5014694;28;20197;-72
2024/01/08 01:36:38;;;;;;;5.30;4.27;;;0.10;99.90;;;;;;5014328;28;20950;-74
2024/01/08 01:39:04;;;;;;;7.40;4.47;;;0.20;99.90;;;;;;5032604;28;20519;-75
2024/01/08 01:41:33;;;;;;;6.07;5.13;;;0.10;99.90;;;;;;5033995;28;20432;-72
2024/01/08 01:43:59;;;;;;;8.87;5.03;;;0.10;99.90;;;;;;5036370;28;20396;-75
2024/01/08 01:46:43;;;;;;;7.10;4.93;;;0.10;99.90;;;;;;5004346;28;20428;-75
2024/01/08 01:49:12;;;;;;;6.90;4.93;;;0.20;99.90;;;;;;5036141;28;20846;-75
2024/01/08 01:51:43;;;;;;;11.50;6.03;;;0.10;99.90;;;;;;5036908;28;20916;-75
2024/01/08 01:54:12;;;;;;;7.67;5.37;;;0.20;99.90;;;;;;5035698;28;20458;-73
2024/01/08 01:56:40;;;;;;;6.43;4.70;;;0.20;99.90;;;;;;5036039;28;20986;-77
2024/01/08 01:59:06;;;;;;;6.70;5.77;;;0.30;99.90;;;;;;5036602;28;20432;-73
2024/01/08 02:01:34;;;;;;;8.20;5.60;;;0.30;99.90;;;;;;5035912;28;20511;-75
2024/01/08 02:04:01;;;;;;;5.93;5.33;;;0.30;99.90;;;;;;5018129;28;20403;-74
2024/01/08 02:06:28;;;;;;;6.20;4.90;;;0.30;99.90;;;;;;5036116;28;20495;-76
2024/01/08 02:08:54;;;;;;;7.60;5.17;;;0.30;99.90;;;;;;5036940;28;20436;-76
2024/01/08 02:11:21;;;;;;;8.13;6.00;;;0.30;99.90;;;;;;5036808;28;20425;-71
2024/01/08 02:13:48;;;;;;;7.50;5.50;;;0.20;99.90;;;;;;5036290;28;20487;-74
2024/01/08 02:16:14;;;;;;;8.63;5.70;;;0.30;99.90;;;;;;5034302;28;20583;-76
2024/01/08 02:18:40;;;;;;;8.37;5.60;;;0.30;99.90;;;;;;5018504;28;20772;-73
2024/01/08 02:21:06;;;;;;;9.60;6.80;;;0.30;99.90;;;;;;5035466;28;20428;-74
2024/01/08 02:23:31;;;;;;;9.00;5.50;;;0.20;99.90;;;;;;5035763;28;20197;-73
2024/01/08 02:25:58;;;;;;;8.30;5.67;;;0.20;99.90;;;;;;5035785;28;20784;-77
2024/01/08 02:28:23;;;;;;;7.30;5.47;;;0.30;99.90;;;;;;5018190;28;20985;-76
2024/01/08 02:30:49;;;;;;;7.83;6.47;;;0.30;99.90;;;;;;5036492;28;20437;-74
2024/01/08 02:33:14;;;;;;;7.40;5.37;;;0.30;99.90;;;;;;5017751;28;20205;-77
2024/01/08 02:35:41;;;;;;;8.50;6.50;;;0.30;99.90;;;;;;5035811;28;20221;-76
2024/01/08 02:38:07;;;;;;;8.40;5.50;;;0.30;99.90;;;;;;5034124;28;20210;-77
2024/01/08 02:40:32;;;;;;;9.70;5.87;;;0.30;99.90;;;;;;5035739;28;20584;-73
2024/01/08 02:42:58;;;;;;;6.77;5.40;;;0.30;99.90;;;;;;5035740;28;20293;-75
2024/01/08 02:45:24;;;;;;;8.10;5.63;;;0.20;99.90;;;;;;5035189;28;20652;-78
2024/01/08 02:47:49;;;;;;;7.90;5.70;;;0.20;99.90;;;;;;5035700;28;20186;-73
2024/01/08 02:50:15;;;;;;;8.33;6.33;;;0.30;99.90;;;;;;5035480;28;20558;-73
2024/01/08 02:52:43;;;;;;;6.67;5.97;;;0.20;99.90;;;;;;5035568;28;20210;-78
2024/01/08 02:55:10;;;;;;;8.40;6.23;;;0.30;99.90;;;;;;5033872;28;20190;-73
2024/01/08 02:57:36;;;;;;;6.80;5.70;;;0.30;99.90;;;;;;5035766;28;20407;-76
2024/01/08 03:00:04;;;;;;;6.90;5.37;;;0.30;99.90;;;;;;5034189;28;20440;-74
2024/01/08 03:02:31;;;;;;;7.90;5.60;;;0.40;99.90;;;;;;5035218;28;20433;-77
2024/01/08 03:04:56;;;;;;;7.80;6.03;;;0.30;99.90;;;;;;5033724;28;20432;-73
2024/01/08 03:07:22;;;;;;;7.87;5.93;;;0.30;99.90;;;;;;5034354;28;20420;-74
2024/01/08 03:09:48;;;;;;;6.83;5.70;;;0.40;99.90;;;;;;5035727;28;20186;-77
2024/01/08 03:12:15;;;;;;;7.67;5.70;;;0.40;99.90;;;;;;5035016;28;20208;-77
2024/01/08 03:14:41;;;;;;;7.67;5.80;;;0.40;99.90;;;;;;5035530;28;20436;-74
2024/01/08 03:17:08;;;;;;;8.67;6.10;;;0.40;99.90;;;;;;5033256;28;20473;-74
2024/01/08 03:19:33;;;;;;;6.63;5.53;;;0.40;99.90;;;;;;5035155;28;20785;-73
2024/01/08 03:22:01;;;;;;;6.47;5.37;;;0.30;99.90;;;;;;5034874;28;20429;-77
2024/01/08 03:24:26;;;;;;;9.83;6.70;;;0.30;99.90;;;;;;5036175;28;20611;-75
2024/01/08 03:26:52;;;;;;;8.10;6.20;;;0.30;99.90;;;;;;5035137;28;20428;-75
2024/01/08 03:29:18;;;;;;;7.27;6.10;;;0.30;99.90;;;;;;5036549;28;20192;-76
2024/01/08 03:31:44;;;;;;;8.20;6.20;;;0.30;99.90;;;;;;5035930;28;20629;-77
2024/01/08 03:34:10;;;;;;;7.87;6.50;;;0.30;99.90;;;;;;5016474;28;20555;-74
2024/01/08 03:36:36;;;;;;;8.40;6.33;;;0.30;99.90;;;;;;5017601;28;20475;-78
2024/01/08 03:39:02;;;;;;;7.37;5.83;;;0.20;99.90;;;;;;5035706;28;20439;-74
2024/01/08 03:41:27;;;;;;;6.10;5.50;;;0.20;99.90;;;;;;5034585;28;20432;-75
2024/01/08 03:43:53;;;;;;;9.07;6.40;;;0.20;99.90;;;;;;5035826;28;20648;-79
2024/01/08 03:46:19;;;;;;;10.40;7.20;;;0.20;99.90;;;;;;5017382;28;20252;-73
2024/01/08 03:48:45;;;;;;;8.90;6.43;;;0.10;99.90;;;;;;5036026;28;20186;-74
2024/01/08 03:51:11;;;;;;;8.93;6.40;;;0.10;99.90;;;;;;5016984;28;20259;-72
2024/01/08 03:53:37;;;;;;;7.77;6.00;;;0.20;99.90;;;;;;5035399;28;20185;-78
2024/01/08 03:56:03;;;;;;;6.30;5.50;;;0.20;99.90;;;;;;5034507;28;20460;-75
2024/01/08 03:58:29;;;;;;;11.43;6.40;;;0.20;99.90;;;;;;5035004;28;20433;-74
2024/01/08 04:00:54;;;;;;;8.20;6.80;;;0.10;99.90;;;;;;5035141;28;20186;-75
2024/01/08 04:03:20;;;;;;;9.10;6.30;;;0.10;99.90;;;;;;5034523;28;20244;-78
2024/01/08 04:05:46;;;;;;;8.50;5.97;;;0.10;99.90;;;;;;5034819;28;20194;-71
2024/01/08 04:08:12;;;;;;;13.07;8.40;;;0.10;99.90;;;;;;5016955;28;20432;-78
2024/01/08 04:10:38;;;;;;;9.23;6.23;;;0.10;99.90;;;;;;5034950;28;20209;-76
2024/01/08 04:13:04;;;;;;;9.70;6.53;;;0.10;99.90;;;;;;5034137;28;20197;-72
2024/01/08 04:15:30;;;;;;;6.20;5.20;;;0.10;99.90;;;;;;5034749;28;20464;-72
2024/01/08 04:17:55;;;;;;;11.60;7.47;;;0.00;99.90;;;;;;5034579;28;20494;-77
2024/01/08 04:20:21;;;;;;;7.83;6.90;;;0.00;99.90;;;;;;5034957;28;20442;-75
2024/01/08 04:22:49;;;;;;;7.53;6.07;;;0.00;99.90;;;;;;5034311;28;20189;-74
2024/01/08 04:25:15;;;;;;;9.27;7.07;;;0.10;99.90;;;;;;5015551;28;20182;-75
2024/01/08 04:27:42;;;;;;;8.40;6.83;;;0.10;99.90;;;;;;5035009;28;20512;-74
2024/01/08 04:30:08;;;;;;;9.57;6.77;;;0.10;99.90;;;;;;5034318;28;20917;-74
2024/01/08 04:32:34;;;;;;;10.13;7.83;;;0.20;99.90;;;;;;5034306;28;20472;-75
2024/01/08 04:35:00;;;;;;;9.63;6.70;;;0.20;99.90;;;;;;5034102;28;20468;-76
2024/01/08 04:37:26;;;;;;;9.07;6.90;;;0.10;99.90;;;;;;5034040;28;20182;-74
2024/01/08 04:39:52;;;;;;;7.90;6.07;;;0.10;99.90;;;;;;5034435;28;20206;-79
2024/01/08 04:42:18;;;;;;;12.00;7.53;;;0.10;99.90;;;;;;5032883;28;20766;-74
2024/01/08 04:44:44;;;;;;;9.43;6.43;;;0.10;99.90;;;;;;5033993;28;20436;-73
2024/01/08 04:47:10;;;;;;;10.00;6.60;;;0.10;99.90;;;;;;5015974;28;20237;-77
2024/01/08 04:49:36;;;;;;;8.97;6.70;;;0.20;99.90;;;;;;5034309;28;20425;-77
2024/01/08 04:52:01;;;;;;;9.50;7.10;;;0.20;99.90;;;;;;5033454;28;20189;-73
2024/01/08 04:54:27;;;;;;;10.23;7.00;;;0.30;99.90;;;;;;5033065;28;20187;-78
2024/01/08 04:56:55;;;;;;;8.70;6.60;;;0.30;99.90;;;;;;5034115;28;20240;-77
2024/01/08 04:59:22;;;;;;;8.10;6.83;;;0.20;99.90;;;;;;5033921;28;20277;-77
2024/01/08 05:01:49;;;;;;;8.50;7.50;;;0.20;99.90;;;;;;5033343;28;20469;-77
2024/01/08 05:04:15;;;;;;;8.33;7.17;;;0.20;99.90;;;;;;5033375;28;20404;-74
2024/01/08 05:06:41;;;;;;;11.73;7.00;;;0.10;99.90;;;;;;5033526;28;20409;-77
2024/01/08 05:09:07;;;;;;;8.27;6.70;;;0.00;99.90;;;;;;5015742;28;20458;-74
2024/01/08 05:11:33;;;;;;;8.30;7.40;;;0.10;99.90;;;;;;5033461;28;20452;-74
2024/01/08 05:13:58;;;;;;;10.27;8.10;;;0.10;99.90;;;;;;5032122;28;20653;-74
2024/01/08 05:16:24;;;;;;;9.60;7.33;;;0.20;99.90;;;;;;5014713;28;20221;-75
2024/01/08 05:18:50;;;;;;;8.97;7.30;;;0.20;99.90;;;;;;5033107;28;20193;-72
2024/01/08 05:21:15;;;;;;;9.17;6.70;;;0.20;99.90;;;;;;5033638;28;20181;-74
2024/01/08 05:23:41;;;;;;;10.87;7.70;;;0.30;99.90;;;;;;5033620;28;20186;-74
2024/01/08 05:26:07;;;;;;;9.47;8.03;;;0.20;99.90;;;;;;5033073;28;20830;-77
2024/01/08 05:28:33;;;;;;;10.20;8.10;;;0.30;99.90;;;;;;5015496;28;20182;-73
2024/01/08 05:30:59;;;;;;;11.63;7.90;;;0.30;99.90;;;;;;5031662;28;20939;-77
2024/01/08 05:33:26;;;;;;;9.23;7.53;;;0.20;99.90;;;;;;5033288;28;20336;-76
2024/01/08 05:35:51;;;;;;;10.57;7.50;;;0.20;99.90;;;;;;5032690;28;20213;-75
2024/01/08 05:38:17;;;;;;;11.30;7.20;;;0.20;99.90;;;;;;5033443;28;20947;-73
2024/01/08 05:40:43;;;;;;;9.50;6.93;;;0.20;99.90;;;;;;5031494;28;20186;-78
2024/01/08 05:43:08;;;;;;;7.97;7.17;;;0.30;99.90;;;;;;5028131;28;20193;-75
2024/01/08 05:45:34;;;;;;;10.07;7.10;;;0.20;99.90;;;;;;5014601;28;20217;-73
2024/01/08 05:48:00;;;;;;;8.50;6.80;;;0.30;99.90;;;;;;5030390;28;20493;-75
2024/01/08 05:50:27;;;;;;;10.53;8.03;;;0.30;99.90;;;;;;5029730;28;20656;-78
2024/01/08 05:52:54;;;;;;;8.17;7.13;;;0.30;99.90;;;;;;5032755;28;20179;-77
2024/01/08 05:55:20;;;;;;;8.83;7.23;;;0.30;99.90;;;;;;5032738;28;20432;-77
2024/01/08 05:57:46;;;;;;;9.50;8.20;;;0.20;99.90;;;;;;5032893;28;20428;-75
2024/01/08 06:00:14;;;;;;;10.60;7.60;;;0.20;99.90;;;;;;5033652;28;20790;-73
2024/01/08 06:02:39;;;;;;;10.80;8.00;;;0.20;99.90;;;;;;4997790;28;20406;-75
2024/01/08 06:05:06;;;;;;;11.03;8.03;;;0.30;99.90;;;;;;5031537;28;20428;-78
2024/01/08 06:07:32;;;;;;;8.87;7.57;;;0.20;99.90;;;;;;5014557;28;20628;-78
2024/01/08 06:09:58;;;;;;;8.20;7.20;;;0.20;99.90;;;;;;5032229;28;20428;-77
2024/01/08 06:12:23;;;;;;;10.93;8.33;;;0.30;99.90;;;;;;5032600;28;20421;-78
2024/01/08 06:14:49;;;;;;;10.97;7.83;;;0.30;99.90;;;;;;5030868;28;20241;-77
2024/01/08 06:17:15;;;;;;;10.83;8.00;;;0.30;99.90;;;;;;5014296;28;20258;-77
2024/01/08 06:19:41;;;;;;;9.90;7.80;;;0.30;99.90;;;;;;5032212;28;20188;-72
2024/01/08 06:22:06;;;;;;;9.77;7.80;;;0.30;99.90;;;;;;5032846;28;20190;-78
2024/01/08 06:24:32;;;;;;;9.30;7.70;;;0.30;99.90;;;;;;5032637;28;20425;-76
2024/01/08 06:26:58;;;;;;;10.63;8.60;;;0.30;99.90;;;;;;5033080;28;20713;-76
2024/01/08 06:29:24;;;;;;;10.50;7.87;;;0.40;99.90;;;;;;5036626;28;20560;-79
2024/01/08 06:31:50;;;;;;;8.50;7.30;;;0.40;99.90;;;;;;5034617;28;20491;-76
2024/01/08 06:34:15;;;;;;;10.93;7.40;;;0.30;99.90;;;;;;5036326;28;20636;-77
2024/01/08 06:36:41;;;;;;;15.77;8.43;;;0.30;99.90;;;;;;5033829;28;20206;-75
2024/01/08 06:39:10;;;;;;;8.47;7.03;;;0.30;99.90;;;;;;5001459;28;20198;-73
2024/01/08 06:41:38;;;;;;;8.80;7.00;;;0.30;99.90;;;;;;5034735;28;20283;-76
2024/01/08 06:44:04;;;;;;;8.83;7.07;;;0.20;99.90;;;;;;5035975;28;20432;-77
2024/01/08 06:46:30;;;;;;;8.63;6.33;;;0.20;99.90;;;;;;5017449;28;20865;-75
2024/01/08 06:48:57;;;;;;;7.90;6.63;;;0.20;99.90;;;;;;5036150;28;20494;-76
2024/01/08 06:51:23;;;;;;;10.53;7.27;;;0.20;99.90;;;;;;5035524;28;20436;-76
2024/01/08 06:53:49;;;;;;;6.50;5.20;;;0.10;99.90;;;;;;5017280;28;20782;-77
2024/01/08 06:56:14;;;;;;;7.50;5.50;;;0.10;99.90;;;;;;5035689;28;20517;-78
2024/01/08 06:58:40;;;;;;;7.93;5.37;;;0.10;99.90;;;;;;5034699;28;20663;-77
2024/01/08 07:01:06;;;;;;;7.07;5.07;;;0.20;99.90;;;;;;5034853;28;20181;-74
2024/01/08 07:03:32;;;;;;;6.93;5.13;;;0.20;99.90;;;;;;5035256;28;20425;-73
2024/01/08 07:05:58;;;;;;;7.40;5.70;;;0.30;99.90;;;;;;5034659;28;20395;-73
2024/01/08 07:08:23;;;;;;;10.00;6.30;;;0.30;99.90;;;;;;5035922;28;20247;-72
2024/01/08 07:10:49;;;;;;;7.53;5.60;;;0.30;99.90;;;;;;5034637;28;20248;-72
2024/01/08 07:13:17;;;;;;;6.53;5.40;;;0.10;99.90;;;;;;5034287;28;20214;-73
2024/01/08 07:15:46;;;;;;;6.90;5.97;;;0.20;99.90;;;;;;5034069;28;20483;-71
2024/01/08 07:18:13;;;;;;;7.67;5.87;;;0.20;99.90;;;;;;5035236;28;20539;-73
2024/01/08 07:20:39;;;;;;;8.03;5.87;;;0.20;99.90;;;;;;5034481;28;20437;-73
2024/01/08 07:23:08;;;;;;;8.50;6.00;;;0.10;99.90;;;;;;5034671;28;20443;-73
2024/01/08 07:25:41;;;;;;;6.27;5.33;;;0.10;99.90;;;;;;5033635;28;20418;-73
2024/01/08 07:28:09;;;;;;;8.60;5.87;;;0.10;99.90;;;;;;5034689;28;20905;-72
2024/01/08 07:30:35;;;;;;;7.00;6.20;;;0.20;99.90;;;;;;5034646;28;20420;-73
2024/01/08 07:33:02;;;;;;;6.70;5.60;;;0.20;99.90;;;;;;5033495;28;20514;-73
2024/01/08 07:35:27;;;;;;;7.17;6.20;;;0.20;99.90;;;;;;5034643;28;20884;-72
2024/01/08 07:37:56;;;;;;;8.67;6.33;;;0.10;99.90;;;;;;5033342;28;20454;-72
2024/01/08 07:40:25;;;;;;;7.80;5.90;;;0.20;99.90;;;;;;5033422;28;20182;-72
2024/01/08 07:42:53;;;;;;;7.50;6.50;;;0.20;99.90;;;;;;5032522;28;20424;-73
2024/01/08 07:45:19;;;;;;;8.93;6.83;;;0.10;99.90;;;;;;5016676;28;20400;-71
2024/01/08 07:47:44;;;;;;;7.03;5.67;;;0.10;99.90;;;;;;5015858;28;20930;-73
2024/01/08 07:50:11;;;;;;;11.97;6.17;;;0.20;99.90;;;;;;5033582;28;20440;-72
2024/01/08 07:52:36;;;;;;;8.70;6.17;;;0.30;99.90;;;;;;5033714;28;20237;-73
2024/01/08 07:55:05;;;;;;;6.87;5.93;;;0.20;99.90;;;;;;5033456;28;20404;-71
2024/01/08 07:57:31;;;;;;;7.63;6.30;;;0.20;99.90;;;;;;5033322;28;20308;-73
2024/01/08 07:59:57;;;;;;;7.20;5.90;;;0.20;99.90;;;;;;5033539;28;20523;-72
2024/01/08 08:02:23;;;;;;;7.67;6.17;;;0.20;99.90;;;;;;5034058;28;20217;-71
2024/01/08 08:04:50;;;;;;;7.63;6.30;;;0.20;99.90;;;;;;5014859;28;21259;-72
2024/01/08 08:07:16;;;;;;;8.63;6.60;;;0.00;99.90;;;;;;5033222;28;20475;-72
2024/01/08 08:09:41;;;;;;;8.13;6.70;;;0.00;99.90;;;;;;5033413;28;20436;-72
2024/01/08 08:12:07;;;;;;;7.90;6.43;;;0.00;99.90;;;;;;5033483;28;20530;-72
2024/01/08 08:14:33;;;;;;;9.70;6.20;;;0.00;99.90;;;;;;5015606;28;20201;-73
2024/01/08 08:16:59;;;;;;;11.80;6.83;;;0.10;99.90;;;;;;5014955;28;20218;-73
2024/01/08 08:19:24;;;;;;;8.37;6.73;;;0.10;99.90;;;;;;5033567;28;20184;-73
2024/01/08 08:21:50;;;;;;;9.20;6.30;;;0.10;99.90;;;;;;5031404;28;20722;-74
2024/01/08 08:24:16;;;;;;;7.07;6.37;;;0.20;99.90;;;;;;5032126;28;20190;-72
2024/01/08 08:26:41;;;;;;;7.57;5.87;;;0.20;99.90;;;;;;5029384;28;20240;-72
2024/01/08 08:29:07;;;;;;;9.77;6.97;;;0.10;99.90;;;;;;5012416;28;20266;-73
2024/01/08 08:31:33;;;;;;;8.57;6.30;;;0.10;99.90;;;;;;5031945;28;20181;-72
2024/01/08 08:33:58;;;;;;;7.87;6.47;;;0.20;99.90;;;;;;5031808;28;20187;-73
2024/01/08 08:36:24;;;;;;;7.70;6.40;;;0.30;99.90;;;;;;5015112;28;20241;-73
2024/01/08 08:38:50;;;;;;;8.13;6.40;;;0.30;99.90;;;;;;5010903;28;20689;-71
2024/01/08 08:41:16;;;;;;;7.37;6.10;;;0.30;99.90;;;;;;5032243;28;20186;-71
2024/01/08 08:43:41;;;;;;;9.07;5.90;;;0.30;99.90;;;;;;5031015;28;20190;-72
2024/01/08 08:46:07;;;;;;;7.20;6.03;;;0.30;99.90;;;;;;5012525;28;20448;-71
2024/01/08 08:48:33;;;;;;;8.20;6.53;;;0.30;99.90;;;;;;5011914;28;20664;-71
2024/01/08 08:50:58;;;;;;;7.90;6.20;;;0.20;99.90;;;;;;4999207;28;20237;-72
2024/01/08 08:53:24;;;;;;;7.63;6.37;;;0.30;99.90;;;;;;5033121;28;20181;-72
2024/01/08 08:55:51;;;;;;;8.00;6.13;;;0.30;99.90;;;;;;5012858;28;20552;-71
2024/01/08 08:58:17;;;;;;;8.80;5.83;;;0.30;99.90;;;;;;5032772;28;20269;-71
2024/01/08 09:00:43;;;;;;;5.97;5.37;;;0.30;99.90;;;;;;5032096;28;20922;-71
2024/01/08 09:03:08;;;;;;;6.00;5.33;;;0.30;99.90;;;;;;5032575;28;20674;-73
2024/01/08 09:05:34;;;;;;;7.40;5.20;;;0.20;99.90;;;;;;5031280;28;20191;-72
2024/01/08 09:08:00;;;;;;;7.13;5.70;;;0.20;99.90;;;;;;5032585;28;20271;-71
2024/01/08 09:10:26;;;;;;;7.33;5.63;;;0.30;99.90;;;;;;5032702;28;20181;-72
2024/01/08 09:12:52;;;;;;;5.97;4.67;;;0.30;99.90;;;;;;5029345;28;20577;-71
2024/01/08 09:15:18;;;;;;;5.10;4.30;;;0.30;99.90;;;;;;5032078;28;20432;-73
2024/01/08 09:17:44;;;;;;;6.43;4.43;;;0.30;99.90;;;;;;5031182;28;20437;-71
2024/01/08 09:20:11;;;;;;;5.30;4.10;;;0.30;99.90;;;;;;5031728;28;20426;-72
2024/01/08 09:22:37;;;;;;;3.87;3.40;;;0.20;99.90;;;;;;5030162;28;20186;-73
2024/01/08 09:25:04;;;;;;;4.57;3.67;;;0.30;99.90;;;;;;5029322;28;20488;-72
2024/01/08 09:27:31;;;;;;;4.63;3.37;;;0.20;99.90;;;;;;5030020;28;20529;-72
2024/01/08 09:29:57;;;;;;;4.40;3.70;;;0.30;99.90;;;;;;5030928;28;20479;-73
2024/01/08 09:32:24;;;;;;;4.20;3.80;;;0.30;99.90;;;;;;5012224;28;20531;-73
2024/01/08 09:34:50;;;;;;;5.30;4.10;;;0.40;99.90;;;;;;5028597;28;20422;-71
2024/01/08 09:37:16;;;;;;;4.33;3.60;;;0.50;99.90;;;;;;5029789;28;20500;-71
2024/01/08 09:39:42;;;;;;;5.60;3.53;;;0.70;99.90;;;;;;5029452;28;20460;-72
2024/01/08 09:42:09;;;;;;;5.10;3.53;;;0.90;99.90;;;;;;5030432;28;20416;-73
2024/01/08 09:44:37;;;;;;;6.40;3.40;;;1.10;99.90;;;;;;5029650;28;20687;-72
2024/01/08 09:47:04;;;;;;;4.63;4.00;;;1.20;99.90;;;;;;5029663;28;20474;-71
2024/01/08 09:49:32;;;;;;;4.90;4.33;;;1.30;99.90;;;;;;5013649;28;20484;-73
2024/01/08 09:52:01;;;;;;;5.20;3.17;;;1.30;99.90;;;;;;5013411;28;20431;-72
2024/01/08 09:54:29;;;;;;;5.40;3.77;;;1.40;99.90;;;;;;5030503;28;20963;-73
2024/01/08 09:56:58;;;;;;;4.53;3.17;;;1.40;98.00;;;;;;5031246;28;20571;-72
2024/01/08 09:59:24;;;;;;;4.03;3.50;;;1.40;96.10;;;;;;5030850;28;20955;-73
2024/01/08 10:01:50;;;;;;;5.67;3.33;;;1.50;95.40;;;;;;5031349;28;20425;-73
2024/01/08 10:04:16;;;;;;;4.47;3.27;;;1.70;95.10;;;;;;5035729;28;20427;-72
2024/01/08 10:06:44;;;;;;;4.83;3.43;;;1.90;95.10;;;;;;5034265;28;20192;-72
2024/01/08 10:09:12;;;;;;;3.47;3.17;;;2.20;95.60;;;;;;5035589;28;20425;-73
2024/01/08 10:11:39;;;;;;;3.80;3.13;;;2.30;92.00;;;;;;5034370;28;20770;-72
2024/01/08 10:14:07;;;;;;;3.53;3.20;;;2.40;93.70;;;;;;5035441;28;20531;-73
2024/01/08 10:16:33;;;;;;;4.30;3.37;;;2.60;93.80;;;;;;5033247;28;20491;-71
2024/01/08 10:18:59;;;;;;;4.57;3.40;;;2.80;94.40;;;;;;5035148;28;20428;-71
2024/01/08 10:21:25;;;;;;;4.97;4.03;;;3.10;95.00;;;;;;5017766;28;20612;-72
2024/01/08 10:23:51;;;;;;;4.30;3.87;;;3.20;93.70;;;;;;5034813;28;20881;-71
2024/01/08 10:26:17;;;;;;;4.57;3.70;;;3.40;94.60;;;;;;5035130;28;20185;-71
2024/01/08 10:28:45;;;;;;;4.03;3.50;;;3.60;94.20;;;;;;5034303;28;20867;-70
2024/01/08 10:31:12;;;;;;;4.50;3.30;;;3.70;92.30;;;;;;5035475;28;20487;-71
2024/01/08 10:33:37;;;;;;;4.20;3.80;;;3.80;92.50;;;;;;5034069;28;21128;-70
2024/01/08 10:36:04;;;;;;;5.07;4.00;;;3.70;90.70;;;;;;5034474;28;20473;-71
2024/01/08 10:38:34;;;;;;;4.80;4.00;;;3.60;91.80;;;;;;5034282;28;20175;-71
2024/01/08 10:41:01;;;;;;;4.10;3.70;;;3.20;85.50;;;;;;5034518;28;20486;-72
2024/01/08 10:43:30;;;;;;;5.43;4.03;;;3.00;90.50;;;;;;5034820;28;20824;-70
2024/01/08 10:46:04;;;;;;;4.07;3.67;;;2.70;90.50;;;;;;5034750;28;20785;-71
2024/01/08 10:48:40;;;;;;;5.77;4.20;;;2.60;90.90;;;;;;5034409;28;20429;-70
2024/01/08 10:51:07;;;;;;;3.70;3.17;;;2.50;91.30;;;;;;5035179;28;20425;-70
2024/01/08 10:53:41;;;;;;;8.33;4.10;;;2.60;91.80;;;;;;5034570;28;20436;-70
2024/01/08 10:56:14;;;;;;;5.10;4.00;;;2.80;92.50;;;;;;5035293;28;20823;-72
2024/01/08 10:59:04;;;;;;;4.53;4.10;;;3.00;92.80;;;;;;5034969;28;20431;-72
2024/01/08 11:01:31;;;;;;;7.60;4.07;;;3.20;92.70;;;;;;5034299;28;20439;-71
2024/01/08 11:03:59;;;;;;;5.33;4.17;;;3.20;90.20;;;;;;5035573;28;20441;-70
2024/01/08 11:06:28;;;;;;;4.40;4.00;;;2.90;91.10;;;;;;5033987;28;20429;-71
2024/01/08 11:08:56;;;;;;;3.97;3.57;;;2.80;90.90;;;;;;5034716;28;20433;-70
2024/01/08 11:11:22;;;;;;;4.97;3.47;;;2.70;92.00;;;;;;5034898;28;20558;-73
2024/01/08 11:13:49;;;;;;;4.60;4.07;;;2.70;91.30;;;;;;5033254;28;20733;-71
2024/01/08 11:16:29;;;;;;;5.53;3.93;;;2.70;91.90;;;;;;5034928;28;20483;-71
2024/01/08 11:19:24;;;;;;;4.30;3.87;;;2.60;91.70;;;;;;5034777;28;20429;-71
2024/01/08 11:21:55;;;;;;;4.33;3.70;;;2.50;91.80;;;;;;5034793;28;20436;-70
2024/01/08 11:24:21;;;;;;;5.53;4.03;;;2.20;90.40;;;;;;5016156;28;20428;-72
2024/01/08 11:26:49;;;;;;;4.20;3.23;;;2.00;90.10;;;;;;5034607;28;20807;-73
2024/01/08 11:29:16;;;;;;;6.33;4.73;;;1.90;91.10;;;;;;5034009;28;20772;-72
2024/01/08 11:31:47;;;;;;;3.60;3.13;;;1.90;91.50;;;;;;5035268;28;20436;-71
2024/01/08 11:34:33;;;;;;;4.57;3.60;;;1.90;90.60;;;;;;5033952;28;20460;-72
2024/01/08 11:37:29;;;;;;;4.53;3.33;;;1.90;90.20;;;;;;5034320;28;20587;-72
2024/01/08 11:39:54;;;;;;;4.20;3.80;;;2.00;91.50;;;;;;5034705;28;20428;-72
2024/01/08 11:42:21;;;;;;;5.07;3.50;;;2.30;91.40;;;;;;5034477;28;20425;-71
2024/01/08 11:44:49;;;;;;;4.43;3.30;;;2.40;90.00;;;;;;5034521;28;20554;-71
2024/01/08 11:47:15;;;;;;;3.97;3.57;;;2.20;83.80;;;;;;5033375;28;20425;-72
2024/01/08 11:49:40;;;;;;;4.20;3.50;;;2.00;83.10;;;;;;5034293;28;20857;-72
2024/01/08 11:52:08;;;;;;;4.70;3.77;;;1.90;84.10;;;;;;5033767;28;20701;-71
2024/01/08 11:54:34;;;;;;;4.37;3.50;;;1.90;83.10;;;;;;5032987;28;20178;-72
2024/01/08 11:57:00;;;;;;;4.37;3.50;;;2.20;83.90;;;;;;5034218;28;20522;-71
2024/01/08 11:59:30;;;;;;;4.93;3.90;;;2.60;84.10;;;;;;5033747;28;20179;-70
2024/01/08 12:02:15;;;;;;;5.70;4.10;;;3.70;87.20;;;;;;5034006;28;20433;-72
2024/01/08 12:04:51;;;;;;;4.03;3.60;;;5.80;79.90;;;;;;5033909;28;20463;-72
2024/01/08 12:07:17;;;;;;;6.50;3.53;;;7.60;66.10;;;;;;5033219;28;20433;-72
2024/01/08 12:09:42;;;;;;;3.30;3.00;;;9.20;59.50;;;;;;5034559;28;20787;-71
2024/01/08 12:12:09;;;;;;;3.97;3.57;;;10.70;56.30;;;;;;5033436;28;20505;-71
2024/01/08 12:14:36;;;;;;;4.90;4.43;;;11.80;50.60;;;;;;5015801;28;20326;-73
2024/01/08 12:17:03;;;;;;;4.60;3.93;;;12.90;46.70;;;;;;5034190;28;20483;-72
2024/01/08 12:19:41;;;;;;;4.70;3.87;;;13.30;43.20;;;;;;5032720;28;20416;-73
2024/01/08 12:22:12;;;;;;;4.90;4.20;;;13.50;41.90;;;;;;5033945;28;20464;-71
2024/01/08 12:24:43;;;;;;;4.20;3.80;;;13.60;40.30;;;;;;5032635;28;20433;-72
2024/01/08 12:27:09;;;;;;;3.60;3.30;;;12.60;39.40;;;;;;5032783;28;20425;-72
2024/01/08 12:29:39;;;;;;;4.30;3.90;;;10.90;38.50;;;;;;5033609;28;20804;-71
2024/01/08 12:32:06;;;;;;;4.30;3.67;;;8.70;40.40;;;;;;5032919;28;20425;-71
2024/01/08 12:34:34;;;;;;;4.50;3.60;;;7.10;41.90;;;;;;5033551;28;20433;-72
2024/01/08 12:37:00;;;;;;;4.70;3.97;;;5.90;44.10;;;;;;5033012;28;20522;-73
2024/01/08 12:39:30;;;;;;;4.70;3.30;;;4.80;46.00;;;;;;5033090;28;20437;-72
2024/01/08 12:41:58;;;;;;;3.93;3.50;;;4.10;48.60;;;;;;5032328;28;20437;-71
2024/01/08 12:44:26;;;;;;;4.63;4.00;;;3.60;50.80;;;;;;5031963;28;20457;-71
2024/01/08 12:46:53;;;;;;;3.67;3.33;;;3.10;52.80;;;;;;5033195;28;20436;-73
2024/01/08 12:49:18;;;;;;;4.10;3.70;;;2.70;54.60;;;;;;5032270;28;20424;-71
2024/01/08 12:51:44;;;;;;;3.63;3.33;;;2.60;57.90;;;;;;5015731;28;20793;-71
2024/01/08 12:54:11;;;;;;;4.63;3.33;;;2.40;59.20;;;;;;5032576;28;20182;-72